sensor_id;sensor_type;location;lat;lon;timestamp;temperature;humidity
16625;DHT22;8426;48.496;9.098;2023-12-20T00:03:55;5.20;99.90
16625;DHT22;8426;48.496;9.098;2023-12-20T00:09:02;5.40;99.90
16625;DHT22;8426;48.496;9.098;2023-12-20T00:14:06;5.40;99.90
16625;DHT22;8426;48.496;9.098;2023-12-20T00:19:11;5.50;99.90
16625;DHT22;8426;48.496;9.098;2023-12-20T00:24:18;5.40;99.90
16625;DHT22;8426;48.496;9.098;2023-12-20T00:29:26;5.40;99.90
16625;DHT22;8426;48.496;9.098;2023-12-20T00:34:31;5.40;99.90
16625;DHT22;8426;48.496;9.098;2023-12-20T00:39:42;5.50;99.90
16625;DHT22;8426;48.496;9.098;2023-12-20T00:44:55;5.50;99.90
16625;DHT22;8426;48.496;9.098;2023-12-20T00:50:01;5.50;99.90
16625;DHT22;8426;48.496;9.098;2023-12-20T00:55:07;5.60;99.90
16625;DHT22;8426;48.496;9.098;2023-12-20T01:00:13;5.60;99.90
16625;DHT22;8426;48.496;9.098;2023-12-20T01:05:22;5.60;99.90
16625;DHT22;8426;48.496;9.098;2023-12-20T01:10:28;5.50;99.90
16625;DHT22;8426;48.496;9.098;2023-12-20T01:15:32;5.40;99.90
16625;DHT22;8426;48.496;9.098;2023-12-20T01:20:35;5.30;99.90
16625;DHT22;8426;48.496;9.098;2023-12-20T01:25:42;5.20;99.90
16625;DHT22;8426;48.496;9.098;2023-12-20T01:30:46;5.10;99.90
16625;DHT22;8426;48.496;9.098;2023-12-20T01:35:51;5.10;99.90
16625;DHT22;8426;48.496;9.098;2023-12-20T01:40:58;5.00;99.90
16625;DHT22;8426;48.496;9.098;2023-12-20T01:46:02;5.00;99.90
16625;DHT22;8426;48.496;9.098;2023-12-20T01:51:08;5.00;99.90
16625;DHT22;8426;48.496;9.098;2023-12-20T01:56:14;4.90;99.90
16625;DHT22;8426;48.496;9.098;2023-12-20T02:01:22;4.90;99.90
16625;DHT22;8426;48.496;9.098;2023-12-20T02:06:30;4.90;99.90
16625;DHT22;8426;48.496;9.098;2023-12-20T02:11:36;4.80;99.90
16625;DHT22;8426;48.496;9.098;2023-12-20T02:16:40;4.80;99.90
16625;DHT22;8426;48.496;9.098;2023-12-20T02:21:45;4.80;99.90
16625;DHT22;8426;48.496;9.098;2023-12-20T02:26:50;4.90;99.90
16625;DHT22;8426;48.496;9.098;2023-12-20T02:31:54;4.80;99.90
16625;DHT22;8426;48.496;9.098;2023-12-20T02:36:59;4.80;99.90
16625;DHT22;8426;48.496;9.098;2023-12-20T02:42:04;4.80;99.90
16625;DHT22;8426;48.496;9.098;2023-12-20T02:47:08;4.80;99.90
16625;DHT22;8426;48.496;9.098;2023-12-20T02:52:13;4.80;99.90
16625;DHT22;8426;48.496;9.098;2023-12-20T02:57:23;4.80;99.90
16625;DHT22;8426;48.496;9.098;2023-12-20T03:02:26;4.70;99.90
16625;DHT22;8426;48.496;9.098;2023-12-20T03:07:31;4.80;99.90
16625;DHT22;8426;48.496;9.098;2023-12-20T03:12:36;4.80;99.90
16625;DHT22;8426;48.496;9.098;2023-12-20T03:17:40;4.80;99.90
16625;DHT22;8426;48.496;9.098;2023-12-20T03:22:52;4.80;99.90
16625;DHT22;8426;48.496;9.098;2023-12-20T03:27:56;4.90;99.90
16625;DHT22;8426;48.496;9.098;2023-12-20T03:33:00;4.90;99.90
16625;DHT22;8426;48.496;9.098;2023-12-20T03:38:08;4.90;99.90
16625;DHT22;8426;48.496;9.098;2023-12-20T03:43:12;4.80;99.90
16625;DHT22;8426;48.496;9.098;2023-12-20T03:48:24;4.80;99.90
16625;DHT22;8426;48.496;9.098;2023-12-20T03:53:34;4.80;99.90
16625;DHT22;8426;48.496;9.098;2023-12-20T03:58:44;4.70;99.90
16625;DHT22;8426;48.496;9.098;2023-12-20T04:03:48;4.70;99.90
16625;DHT22;8426;48.496;9.098;2023-12-20T04:08:56;4.70;99.90
16625;DHT22;8426;48.496;9.098;2023-12-20T04:14:00;4.60;99.90
16625;DHT22;8426;48.496;9.098;2023-12-20T04:19:10;4.60;99.90
16625;DHT22;8426;48.496;9.098;2023-12-20T04:24:17;4.60;99.90
16625;DHT22;8426;48.496;9.098;2023-12-20T04:29:26;4.50;99.90
16625;DHT22;8426;48.496;9.098;2023-12-20T04:34:32;4.50;99.90
16625;DHT22;8426;48.496;9.098;2023-12-20T04:39:37;4.50;99.90
16625;DHT22;8426;48.496;9.098;2023-12-20T04:44:42;4.50;99.90
16625;DHT22;8426;48.496;9.098;2023-12-20T04:49:52;4.50;99.90
16625;DHT22;8426;48.496;9.098;2023-12-20T04:54:57;4.50;99.90
16625;DHT22;8426;48.496;9.098;2023-12-20T05:00:02;4.50;99.90
16625;DHT22;8426;48.496;9.098;2023-12-20T05:05:25;4.40;99.90
16625;DHT22;8426;48.496;9.098;2023-12-20T05:10:31;4.50;99.90
16625;DHT22;8426;48.496;9.098;2023-12-20T05:15:46;4.40;99.90
16625;DHT22;8426;48.496;9.098;2023-12-20T05:20:51;4.40;99.90
16625;DHT22;8426;48.496;9.098;2023-12-20T05:26:02;4.40;99.90
16625;DHT22;8426;48.496;9.098;2023-12-20T05:31:06;4.50;99.90
16625;DHT22;8426;48.496;9.098;2023-12-20T05:36:12;4.40;99.90
16625;DHT22;8426;48.496;9.098;2023-12-20T05:41:24;4.40;99.90
16625;DHT22;8426;48.496;9.098;2023-12-20T05:46:28;4.40;99.90
16625;DHT22;8426;48.496;9.098;2023-12-20T05:51:33;4.40;99.90
16625;DHT22;8426;48.496;9.098;2023-12-20T05:56:38;4.40;99.90
16625;DHT22;8426;48.496;9.098;2023-12-20T06:01:43;4.40;99.90
16625;DHT22;8426;48.496;9.098;2023-12-20T06:06:47;4.40;99.90
16625;DHT22;8426;48.496;9.098;2023-12-20T06:11:53;4.40;99.90
16625;DHT22;8426;48.496;9.098;2023-12-20T06:16:57;4.40;99.90
16625;DHT22;8426;48.496;9.098;2023-12-20T06:22:02;4.50;99.90
16625;DHT22;8426;48.496;9.098;2023-12-20T06:27:08;4.40;99.90
16625;DHT22;8426;48.496;9.098;2023-12-20T06:32:12;4.50;99.90
16625;DHT22;8426;48.496;9.098;2023-12-20T06:37:16;4.40;99.90
16625;DHT22;8426;48.496;9.098;2023-12-20T06:42:23;4.50;99.90
16625;DHT22;8426;48.496;9.098;2023-12-20T06:47:26;4.40;99.90
16625;DHT22;8426;48.496;9.098;2023-12-20T06:52:31;4.40;99.90
16625;DHT22;8426;48.496;9.098;2023-12-20T06:57:39;4.40;99.90
16625;DHT22;8426;48.496;9.098;2023-12-20T07:02:45;4.30;99.90
16625;DHT22;8426;48.496;9.098;2023-12-20T07:07:50;4.30;99.90
16625;DHT22;8426;48.496;9.098;2023-12-20T07:13:02;4.40;99.90
16625;DHT22;8426;48.496;9.098;2023-12-20T07:18:06;4.30;99.90
16625;DHT22;8426;48.496;9.098;2023-12-20T07:23:11;4.40;99.90
16625;DHT22;8426;48.496;9.098;2023-12-20T07:28:18;4.40;99.90
16625;DHT22;8426;48.496;9.098;2023-12-20T07:33:22;4.40;99.90
16625;DHT22;8426;48.496;9.098;2023-12-20T07:38:26;4.40;99.90
16625;DHT22;8426;48.496;9.098;2023-12-20T07:43:32;4.50;99.90
16625;DHT22;8426;48.496;9.098;2023-12-20T07:48:36;4.50;99.90
16625;DHT22;8426;48.496;9.098;2023-12-20T07:53:44;4.50;99.90
16625;DHT22;8426;48.496;9.098;2023-12-20T07:58:50;4.50;99.90
16625;DHT22;8426;48.496;9.098;2023-12-20T08:03:57;4.60;99.90
16625;DHT22;8426;48.496;9.098;2023-12-20T08:09:08;4.70;99.90
16625;DHT22;8426;48.496;9.098;2023-12-20T08:14:22;4.80;99.90
16625;DHT22;8426;48.496;9.098;2023-12-20T08:19:28;4.80;99.90
16625;DHT22;8426;48.496;9.098;2023-12-20T08:24:32;4.80;99.90
16625;DHT22;8426;48.496;9.098;2023-12-20T08:29:37;4.90;99.90
16625;DHT22;8426;48.496;9.098;2023-12-20T08:34:40;5.00;99.90
16625;DHT22;8426;48.496;9.098;2023-12-20T08:39:46;5.00;99.90
16625;DHT22;8426;48.496;9.098;2023-12-20T08:44:52;5.10;99.90
16625;DHT22;8426;48.496;9.098;2023-12-20T08:49:56;5.20;99.90
16625;DHT22;8426;48.496;9.098;2023-12-20T08:55:03;5.10;99.90
16625;DHT22;8426;48.496;9.098;2023-12-20T09:00:11;5.00;99.90
16625;DHT22;8426;48.496;9.098;2023-12-20T09:05:17;5.10;99.90
16625;DHT22;8426;48.496;9.098;2023-12-20T09:10:32;5.10;99.90
16625;DHT22;8426;48.496;9.098;2023-12-20T09:15:38;5.20;99.90
16625;DHT22;8426;48.496;9.098;2023-12-20T09:20:43;5.00;99.90
16625;DHT22;8426;48.496;9.098;2023-12-20T09:25:57;4.90;99.90
16625;DHT22;8426;48.496;9.098;2023-12-20T09:31:10;4.70;99.90
16625;DHT22;8426;48.496;9.098;2023-12-20T09:36:16;4.60;99.90
16625;DHT22;8426;48.496;9.098;2023-12-20T09:41:23;4.70;99.90
16625;DHT22;8426;48.496;9.098;2023-12-20T09:46:33;4.90;99.90
16625;DHT22;8426;48.496;9.098;2023-12-20T09:51:37;4.90;99.90
16625;DHT22;8426;48.496;9.098;2023-12-20T09:56:45;4.70;99.90
16625;DHT22;8426;48.496;9.098;2023-12-20T10:01:51;4.50;99.90
16625;DHT22;8426;48.496;9.098;2023-12-20T10:07:02;4.50;99.90
16625;DHT22;8426;48.496;9.098;2023-12-20T10:12:14;4.40;99.90
16625;DHT22;8426;48.496;9.098;2023-12-20T10:17:21;4.40;99.90
16625;DHT22;8426;48.496;9.098;2023-12-20T10:22:26;4.30;99.90
16625;DHT22;8426;48.496;9.098;2023-12-20T10:27:30;4.50;99.90
16625;DHT22;8426;48.496;9.098;2023-12-20T10:32:37;4.70;99.90
16625;DHT22;8426;48.496;9.098;2023-12-20T10:37:43;5.00;99.90
16625;DHT22;8426;48.496;9.098;2023-12-20T10:42:48;5.60;99.90
16625;DHT22;8426;48.496;9.098;2023-12-20T10:47:54;5.80;99.90
16625;DHT22;8426;48.496;9.098;2023-12-20T10:53:01;5.80;99.90
16625;DHT22;8426;48.496;9.098;2023-12-20T10:58:07;5.50;99.90
16625;DHT22;8426;48.496;9.098;2023-12-20T11:03:20;5.10;99.90
16625;DHT22;8426;48.496;9.098;2023-12-20T11:08:31;4.80;99.90
16625;DHT22;8426;48.496;9.098;2023-12-20T11:13:44;5.00;99.90
16625;DHT22;8426;48.496;9.098;2023-12-20T11:18:53;5.10;99.90
16625;DHT22;8426;48.496;9.098;2023-12-20T11:23:59;4.90;99.90
16625;DHT22;8426;48.496;9.098;2023-12-20T11:29:33;4.80;99.90
16625;DHT22;8426;48.496;9.098;2023-12-20T11:34:41;4.80;99.90
16625;DHT22;8426;48.496;9.098;2023-12-20T11:39:54;5.10;99.90
16625;DHT22;8426;48.496;9.098;2023-12-20T11:45:01;5.40;99.90
16625;DHT22;8426;48.496;9.098;2023-12-20T11:50:08;5.60;99.90
16625;DHT22;8426;48.496;9.098;2023-12-20T11:55:12;5.60;99.90
16625;DHT22;8426;48.496;9.098;2023-12-20T12:00:17;5.60;99.90
16625;DHT22;8426;48.496;9.098;2023-12-20T12:05:23;5.60;99.90
16625;DHT22;8426;48.496;9.098;2023-12-20T12:10:36;5.40;99.90
16625;DHT22;8426;48.496;9.098;2023-12-20T12:15:40;5.30;99.90
16625;DHT22;8426;48.496;9.098;2023-12-20T12:20:46;5.30;99.90
16625;DHT22;8426;48.496;9.098;2023-12-20T12:25:50;5.30;99.90
16625;DHT22;8426;48.496;9.098;2023-12-20T12:30:57;5.20;99.90
16625;DHT22;8426;48.496;9.098;2023-12-20T12:36:05;5.10;99.90
16625;DHT22;8426;48.496;9.098;2023-12-20T12:41:12;5.10;99.90
16625;DHT22;8426;48.496;9.098;2023-12-20T12:46:17;5.10;99.90
16625;DHT22;8426;48.496;9.098;2023-12-20T12:51:24;5.10;99.90
16625;DHT22;8426;48.496;9.098;2023-12-20T12:56:28;5.00;99.90
16625;DHT22;8426;48.496;9.098;2023-12-20T13:01:32;4.90;99.90
16625;DHT22;8426;48.496;9.098;2023-12-20T13:06:38;5.10;99.90
16625;DHT22;8426;48.496;9.098;2023-12-20T13:11:43;5.00;99.90
16625;DHT22;8426;48.496;9.098;2023-12-20T13:16:47;5.00;99.90
16625;DHT22;8426;48.496;9.098;2023-12-20T13:21:52;5.10;99.90
16625;DHT22;8426;48.496;9.098;2023-12-20T13:26:58;5.20;99.90
16625;DHT22;8426;48.496;9.098;2023-12-20T13:32:02;5.30;99.90
16625;DHT22;8426;48.496;9.098;2023-12-20T13:37:08;5.80;99.90
16625;DHT22;8426;48.496;9.098;2023-12-20T13:42:13;6.10;99.90
16625;DHT22;8426;48.496;9.098;2023-12-20T13:47:18;6.10;99.90
16625;DHT22;8426;48.496;9.098;2023-12-20T13:52:26;6.30;99.90
16625;DHT22;8426;48.496;9.098;2023-12-20T13:57:30;6.30;99.90
16625;DHT22;8426;48.496;9.098;2023-12-20T14:02:38;6.00;99.90
16625;DHT22;8426;48.496;9.098;2023-12-20T14:07:43;5.70;99.90
16625;DHT22;8426;48.496;9.098;2023-12-20T14:12:48;5.50;99.90
16625;DHT22;8426;48.496;9.098;2023-12-20T14:17:52;5.40;99.90
16625;DHT22;8426;48.496;9.098;2023-12-20T14:22:58;5.20;99.90
16625;DHT22;8426;48.496;9.098;2023-12-20T14:28:03;5.20;99.90
16625;DHT22;8426;48.496;9.098;2023-12-20T14:33:06;5.10;99.90
16625;DHT22;8426;48.496;9.098;2023-12-20T14:38:12;5.00;99.90
16625;DHT22;8426;48.496;9.098;2023-12-20T14:43:18;4.80;99.90
16625;DHT22;8426;48.496;9.098;2023-12-20T14:48:24;4.80;99.90
16625;DHT22;8426;48.496;9.098;2023-12-20T14:53:31;4.80;99.90
16625;DHT22;8426;48.496;9.098;2023-12-20T14:58:35;4.70;99.90
16625;DHT22;8426;48.496;9.098;2023-12-20T15:03:39;4.60;99.90
16625;DHT22;8426;48.496;9.098;2023-12-20T15:08:45;4.50;99.90
16625;DHT22;8426;48.496;9.098;2023-12-20T15:13:48;4.50;99.90
16625;DHT22;8426;48.496;9.098;2023-12-20T15:18:58;4.40;99.90
16625;DHT22;8426;48.496;9.098;2023-12-20T15:24:04;4.30;99.90
16625;DHT22;8426;48.496;9.098;2023-12-20T15:29:15;4.30;99.90
16625;DHT22;8426;48.496;9.098;2023-12-20T15:34:19;4.20;99.90
16625;DHT22;8426;48.496;9.098;2023-12-20T15:39:26;4.10;99.90
16625;DHT22;8426;48.496;9.098;2023-12-20T15:44:30;4.10;99.90
16625;DHT22;8426;48.496;9.098;2023-12-20T15:49:33;3.90;99.90
16625;DHT22;8426;48.496;9.098;2023-12-20T15:54:39;3.80;99.90
16625;DHT22;8426;48.496;9.098;2023-12-20T15:59:44;3.70;99.90
16625;DHT22;8426;48.496;9.098;2023-12-20T16:04:48;3.60;99.90
16625;DHT22;8426;48.496;9.098;2023-12-20T16:09:53;3.70;99.90
16625;DHT22;8426;48.496;9.098;2023-12-20T16:14:57;3.60;99.90
16625;DHT22;8426;48.496;9.098;2023-12-20T16:20:01;3.60;99.90
16625;DHT22;8426;48.496;9.098;2023-12-20T16:25:07;3.60;99.90
16625;DHT22;8426;48.496;9.098;2023-12-20T16:30:13;3.60;99.90
16625;DHT22;8426;48.496;9.098;2023-12-20T16:35:17;3.60;99.90
16625;DHT22;8426;48.496;9.098;2023-12-20T16:40:23;3.50;99.90
16625;DHT22;8426;48.496;9.098;2023-12-20T16:45:28;3.50;99.90
16625;DHT22;8426;48.496;9.098;2023-12-20T16:50:38;3.50;99.90
16625;DHT22;8426;48.496;9.098;2023-12-20T16:55:43;3.60;99.90
16625;DHT22;8426;48.496;9.098;2023-12-20T17:00:47;3.60;99.90
16625;DHT22;8426;48.496;9.098;2023-12-20T17:05:51;3.60;99.90
16625;DHT22;8426;48.496;9.098;2023-12-20T17:10:56;3.70;99.90
16625;DHT22;8426;48.496;9.098;2023-12-20T17:16:00;3.60;99.90
16625;DHT22;8426;48.496;9.098;2023-12-20T17:21:04;3.70;99.90
16625;DHT22;8426;48.496;9.098;2023-12-20T17:26:10;3.80;99.90
16625;DHT22;8426;48.496;9.098;2023-12-20T17:31:14;3.80;99.90
16625;DHT22;8426;48.496;9.098;2023-12-20T17:36:19;3.90;99.90
16625;DHT22;8426;48.496;9.098;2023-12-20T17:41:26;3.90;99.90
16625;DHT22;8426;48.496;9.098;2023-12-20T17:46:30;4.00;99.90
16625;DHT22;8426;48.496;9.098;2023-12-20T17:51:35;3.90;99.90
16625;DHT22;8426;48.496;9.098;2023-12-20T17:56:40;3.90;99.90
16625;DHT22;8426;48.496;9.098;2023-12-20T18:01:44;3.80;99.90
16625;DHT22;8426;48.496;9.098;2023-12-20T18:06:49;3.90;99.90
16625;DHT22;8426;48.496;9.098;2023-12-20T18:11:54;3.80;99.90
16625;DHT22;8426;48.496;9.098;2023-12-20T18:16:58;3.90;99.90
16625;DHT22;8426;48.496;9.098;2023-12-20T18:22:02;3.90;99.90
16625;DHT22;8426;48.496;9.098;2023-12-20T18:27:10;3.90;99.90
16625;DHT22;8426;48.496;9.098;2023-12-20T18:32:13;3.90;99.90
16625;DHT22;8426;48.496;9.098;2023-12-20T18:37:23;3.90;99.90
16625;DHT22;8426;48.496;9.098;2023-12-20T18:42:31;3.90;99.90
16625;DHT22;8426;48.496;9.098;2023-12-20T18:47:35;4.10;99.90
16625;DHT22;8426;48.496;9.098;2023-12-20T18:52:43;4.00;99.90
16625;DHT22;8426;48.496;9.098;2023-12-20T18:57:49;4.00;99.90
16625;DHT22;8426;48.496;9.098;2023-12-20T19:02:56;4.00;99.90
16625;DHT22;8426;48.496;9.098;2023-12-20T19:08:01;4.00;99.90
16625;DHT22;8426;48.496;9.098;2023-12-20T19:13:08;4.00;99.90
16625;DHT22;8426;48.496;9.098;2023-12-20T19:18:13;4.00;99.90
16625;DHT22;8426;48.496;9.098;2023-12-20T19:23:17;3.90;99.90
16625;DHT22;8426;48.496;9.098;2023-12-20T19:28:23;4.00;99.90
16625;DHT22;8426;48.496;9.098;2023-12-20T19:33:27;4.10;99.90
16625;DHT22;8426;48.496;9.098;2023-12-20T19:38:33;4.10;99.90
16625;DHT22;8426;48.496;9.098;2023-12-20T19:43:38;4.00;99.90
16625;DHT22;8426;48.496;9.098;2023-12-20T19:48:43;3.90;99.90
16625;DHT22;8426;48.496;9.098;2023-12-20T19:53:51;4.00;99.90
16625;DHT22;8426;48.496;9.098;2023-12-20T19:58:57;4.00;99.90
16625;DHT22;8426;48.496;9.098;2023-12-20T20:04:00;3.90;99.90
16625;DHT22;8426;48.496;9.098;2023-12-20T20:09:04;3.80;99.90
16625;DHT22;8426;48.496;9.098;2023-12-20T20:14:12;3.90;99.90
16625;DHT22;8426;48.496;9.098;2023-12-20T20:19:15;3.90;99.90
16625;DHT22;8426;48.496;9.098;2023-12-20T20:24:19;3.90;99.90
16625;DHT22;8426;48.496;9.098;2023-12-20T20:29:25;3.80;99.90
16625;DHT22;8426;48.496;9.098;2023-12-20T20:34:28;3.80;99.90
16625;DHT22;8426;48.496;9.098;2023-12-20T20:39:33;3.70;99.90
16625;DHT22;8426;48.496;9.098;2023-12-20T20:44:38;3.70;99.90
16625;DHT22;8426;48.496;9.098;2023-12-20T20:49:42;3.70;99.90
16625;DHT22;8426;48.496;9.098;2023-12-20T20:54:46;3.70;99.90
16625;DHT22;8426;48.496;9.098;2023-12-20T20:59:53;3.80;99.90
16625;DHT22;8426;48.496;9.098;2023-12-20T21:04:57;3.70;99.90
16625;DHT22;8426;48.496;9.098;2023-12-20T21:10:00;3.70;99.90
16625;DHT22;8426;48.496;9.098;2023-12-20T21:15:08;3.80;99.90
16625;DHT22;8426;48.496;9.098;2023-12-20T21:20:17;3.80;99.90
16625;DHT22;8426;48.496;9.098;2023-12-20T21:25:21;3.90;99.90
16625;DHT22;8426;48.496;9.098;2023-12-20T21:30:26;3.90;99.90
16625;DHT22;8426;48.496;9.098;2023-12-20T21:35:37;3.90;99.90
16625;DHT22;8426;48.496;9.098;2023-12-20T21:40:40;3.90;99.90
16625;DHT22;8426;48.496;9.098;2023-12-20T21:45:45;4.00;99.90
16625;DHT22;8426;48.496;9.098;2023-12-20T21:50:49;3.90;99.90
16625;DHT22;8426;48.496;9.098;2023-12-20T21:55:53;3.80;99.90
16625;DHT22;8426;48.496;9.098;2023-12-20T22:00:59;3.90;99.90
16625;DHT22;8426;48.496;9.098;2023-12-20T22:06:07;3.90;99.90
16625;DHT22;8426;48.496;9.098;2023-12-20T22:11:11;3.90;99.90
16625;DHT22;8426;48.496;9.098;2023-12-20T22:16:17;3.90;99.90
16625;DHT22;8426;48.496;9.098;2023-12-20T22:21:21;4.00;99.90
16625;DHT22;8426;48.496;9.098;2023-12-20T22:26:24;4.00;99.90
16625;DHT22;8426;48.496;9.098;2023-12-20T22:31:30;4.10;99.90
16625;DHT22;8426;48.496;9.098;2023-12-20T22:36:34;4.20;99.90
16625;DHT22;8426;48.496;9.098;2023-12-20T22:41:37;4.20;99.90
16625;DHT22;8426;48.496;9.098;2023-12-20T22:46:45;4.20;99.90
16625;DHT22;8426;48.496;9.098;2023-12-20T22:51:48;4.30;99.90
16625;DHT22;8426;48.496;9.098;2023-12-20T22:56:52;4.30;99.90
16625;DHT22;8426;48.496;9.098;2023-12-20T23:01:58;4.30;99.90
16625;DHT22;8426;48.496;9.098;2023-12-20T23:07:02;4.30;99.90
16625;DHT22;8426;48.496;9.098;2023-12-20T23:12:06;4.30;99.90
16625;DHT22;8426;48.496;9.098;2023-12-20T23:17:12;4.30;99.90
16625;DHT22;8426;48.496;9.098;2023-12-20T23:22:15;4.30;99.90
16625;DHT22;8426;48.496;9.098;2023-12-20T23:27:19;4.30;99.90
16625;DHT22;8426;48.496;9.098;2023-12-20T23:32:25;4.20;99.90
16625;DHT22;8426;48.496;9.098;2023-12-20T23:37:29;4.20;99.90
16625;DHT22;8426;48.496;9.098;2023-12-20T23:42:32;4.10;99.90
16625;DHT22;8426;48.496;9.098;2023-12-20T23:47:38;4.20;99.90
16625;DHT22;8426;48.496;9.098;2023-12-20T23:52:41;4.20;99.90
16625;DHT22;8426;48.496;9.098;2023-12-20T23:57:45;4.20;99.90
